Time;durP1;ratioP1;P1;durP2;ratioP2;P2;SDS_P1;SDS_P2;PMS_P1;PMS_P2;Temp;Humidity;BMP_temperature;BMP_pressure;BME280_temperature;BME280_humidity;BME280_pressure;Samples;Min_cycle;Max_cycle;Signal;HPM_P1;HPM_P2
2023/10/11 00:01:13;;;;;;;7.13;2.00;;;;;;;9.63;89.51;101020.19;4974904;28;20054;-62
2023/10/11 00:03:52;;;;;;;4.65;1.70;;;;;;;9.73;85.90;101016.69;4984194;28;20464;-63
2023/10/11 00:06:24;;;;;;;3.60;1.77;;;;;;;9.90;81.50;101030.59;4974622;28;20062;-62
2023/10/11 00:08:55;;;;;;;3.85;1.77;;;;;;;10.03;79.41;101014.91;4984448;28;20579;-63
2023/10/11 00:11:27;;;;;;;6.25;1.88;;;;;;;10.19;79.93;101019.25;4974747;28;20054;-62
2023/10/11 00:13:59;;;;;;;8.82;2.00;;;;;;;10.27;72.49;101004.41;4984444;28;20481;-64
2023/10/11 00:16:31;;;;;;;4.18;1.80;;;;;;;10.32;71.25;101002.69;4974260;28;20682;-61
2023/10/11 00:19:06;;;;;;;3.25;1.90;;;;;;;10.44;71.25;101011.38;4985399;28;20058;-63
2023/10/11 00:21:40;;;;;;;4.90;2.00;;;;;;;10.46;70.07;100973.91;4974411;28;20119;-63
2023/10/11 00:24:11;;;;;;;3.47;2.13;;;;;;;10.72;67.85;100996.41;4974999;28;20403;-61
2023/10/11 00:26:44;;;;;;;3.47;1.63;;;;;;;10.78;65.35;100997.28;4984479;28;20045;-60
2023/10/11 00:29:16;;;;;;;2.67;1.50;;;;;;;10.88;64.50;100997.19;4974670;28;20054;-64
2023/10/11 00:31:46;;;;;;;2.70;1.70;;;;;;;10.98;63.56;101004.09;4984541;28;20057;-63
2023/10/11 00:34:18;;;;;;;3.72;1.67;;;;;;;10.92;62.08;100994.56;4975945;28;20103;-63
2023/10/11 00:36:49;;;;;;;2.63;1.80;;;;;;;10.51;59.49;100955.59;4988535;28;20100;-61
2023/10/11 00:39:20;;;;;;;2.50;1.70;;;;;;;10.68;60.20;100987.72;4978544;28;20050;-63
2023/10/11 00:41:50;;;;;;;3.50;1.88;;;;;;;10.80;60.84;100990.25;4988481;28;20141;-61
2023/10/11 00:44:22;;;;;;;3.03;1.58;;;;;;;10.94;61.70;100986.72;4978440;28;20053;-62
2023/10/11 00:47:00;;;;;;;2.33;1.50;;;;;;;11.01;60.76;100980.56;4988118;28;20060;-62
2023/10/11 00:49:36;;;;;;;4.47;1.70;;;;;;;11.06;60.16;100981.41;4978491;28;20127;-61
2023/10/11 00:52:08;;;;;;;5.00;1.80;;;;;;;11.22;61.52;100977.78;4989069;28;20053;-61
2023/10/11 00:54:44;;;;;;;3.80;1.83;;;;;;;10.68;61.17;100849.19;4976702;28;20069;-61
2023/10/11 00:57:15;;;;;;;2.42;1.42;;;;;;;11.39;59.30;100969.81;4977778;28;20492;-62
2023/10/11 00:59:47;;;;;;;3.13;1.70;;;;;;;11.46;58.92;100965.41;4987822;28;20159;-63
2023/10/11 01:02:18;;;;;;;2.92;1.70;;;;;;;11.46;58.66;100965.41;4977814;28;20092;-62
2023/10/11 01:04:48;;;;;;;4.38;1.80;;;;;;;11.52;58.90;100960.09;4987617;28;20519;-62
2023/10/11 01:07:19;;;;;;;4.32;1.77;;;;;;;11.58;58.03;100954.81;4978201;28;20105;-63
2023/10/11 01:09:50;;;;;;;7.10;1.80;;;;;;;11.65;57.99;100961.69;4987578;28;20056;-61
2023/10/11 01:12:22;;;;;;;2.63;1.67;;;;;;;11.64;57.81;100959.97;4977109;28;20136;-62
2023/10/11 01:15:00;;;;;;;3.50;1.60;;;;;;;11.65;61.03;100946.00;4987205;28;20050;-62
2023/10/11 01:17:32;;;;;;;4.13;1.92;;;;;;;11.78;62.40;100935.41;4977302;28;20429;-63
2023/10/11 01:20:07;;;;;;;5.30;1.48;;;;;;;11.76;57.29;100938.06;4987370;28;20066;-62
2023/10/11 01:22:39;;;;;;;3.78;1.67;;;;;;;11.74;56.80;100946.81;4977124;28;20064;-64
2023/10/11 01:25:12;;;;;;;2.42;1.52;;;;;;;11.67;57.82;100943.38;4981514;28;20504;-64
2023/10/11 01:27:44;;;;;;;6.25;2.50;;;;;;;11.77;59.87;100933.69;4987334;28;20053;-62
2023/10/11 01:30:15;;;;;;;3.28;1.80;;;;;;;12.00;61.47;100923.84;4977176;28;20068;-62
2023/10/11 01:32:47;;;;;;;2.63;1.45;;;;;;;12.27;61.87;100919.16;4987058;28;20069;-62
2023/10/11 01:35:20;;;;;;;2.90;1.70;;;;;;;12.42;61.01;100920.72;4976805;28;20061;-61
2023/10/11 01:37:55;;;;;;;1.77;1.38;;;;;;;12.44;60.45;100927.66;4986992;28;20076;-62
2023/10/11 01:40:26;;;;;;;2.97;1.50;;;;;;;12.59;57.03;100923.09;4977813;28;20053;-62
2023/10/11 01:42:56;;;;;;;2.10;1.50;;;;;;;12.57;55.58;100922.25;4987112;28;20153;-64
2023/10/11 01:45:27;;;;;;;2.60;1.65;;;;;;;12.72;57.68;100922.03;4984115;28;20156;-61
2023/10/11 01:47:57;;;;;;;4.93;1.85;;;;;;;12.80;59.20;100903.56;4986765;28;20046;-62
2023/10/11 01:50:28;;;;;;;5.28;1.60;;;;;;;12.86;57.89;100916.59;4976955;28;20050;-62
2023/10/11 01:53:03;;;;;;;4.85;1.35;;;;;;;13.04;58.82;100912.81;4986669;28;20049;-60
2023/10/11 01:55:34;;;;;;;2.03;1.23;;;;;;;13.26;58.44;100897.56;4977048;28;20072;-62
2023/10/11 01:58:06;;;;;;;3.92;1.70;;;;;;;13.40;57.73;100899.97;4986940;28;20053;-63
2023/10/11 02:00:36;;;;;;;2.38;1.55;;;;;;;13.32;56.62;100898.34;4975481;28;20157;-64
2023/10/11 02:03:13;;;;;;;2.70;1.75;;;;;;;13.30;56.62;100900.13;4986725;28;20061;-60
2023/10/11 02:05:44;;;;;;;3.15;1.40;;;;;;;13.26;53.87;100898.44;4970316;28;20054;-62
2023/10/11 02:08:17;;;;;;;2.42;1.38;;;;;;;13.16;54.51;100897.72;4976513;28;20144;-64
2023/10/11 02:10:47;;;;;;;3.00;1.70;;;;;;;13.25;55.14;100880.94;4986678;28;20060;-61
2023/10/11 02:13:18;;;;;;;2.53;1.30;;;;;;;13.41;54.05;100885.97;4977395;28;20057;-62
2023/10/11 02:15:49;;;;;;;4.82;1.77;;;;;;;13.50;55.47;100883.16;4986667;28;20057;-61
2023/10/11 02:18:19;;;;;;;4.32;1.75;;;;;;;13.48;55.57;100877.06;4977006;28;20050;-63
2023/10/11 02:20:50;;;;;;;2.95;1.80;;;;;;;13.71;57.55;100890.66;4986704;28;20050;-62
2023/10/11 02:23:23;;;;;;;2.25;1.58;;;;;;;13.94;57.91;100889.31;4976765;28;20803;-62
2023/10/11 02:25:53;;;;;;;4.03;2.22;;;;;;;13.72;52.16;100881.84;4986593;28;20077;-62
2023/10/11 02:28:23;;;;;;;5.65;1.52;;;;;;;13.45;51.81;100877.13;4977222;28;20053;-62
2023/10/11 02:30:55;;;;;;;3.25;1.58;;;;;;;13.20;51.38;100880.16;4986005;28;20058;-64
2023/10/11 02:33:30;;;;;;;3.60;2.00;;;;;;;13.11;51.30;100872.47;4976106;28;20168;-60
2023/10/11 02:36:08;;;;;;;3.88;1.67;;;;;;;13.18;53.32;100868.84;4985933;28;20430;-64
2023/10/11 02:38:47;;;;;;;2.95;1.50;;;;;;;13.48;54.64;100861.31;4975733;28;20057;-63
2023/10/11 02:41:24;;;;;;;3.50;1.65;;;;;;;13.60;58.00;100861.09;4975920;28;20860;-61
2023/10/11 02:43:57;;;;;;;2.90;1.40;;;;;;;13.57;54.00;100845.41;4985593;28;20054;-61
2023/10/11 02:46:28;;;;;;;3.03;1.40;;;;;;;13.52;57.67;100847.25;4967654;28;20293;-61
2023/10/11 02:49:06;;;;;;;3.30;1.50;;;;;;;13.48;55.33;100846.44;4952370;28;20077;-61
2023/10/11 02:51:37;;;;;;;2.53;1.60;;;;;;;13.62;57.07;100838.28;4976289;28;20288;-61
2023/10/11 02:54:14;;;;;;;3.47;1.50;;;;;;;13.68;54.16;100842.53;4980360;28;20751;-61
2023/10/11 02:56:48;;;;;;;4.40;1.70;;;;;;;13.64;53.55;100839.13;4968831;28;20299;-62
2023/10/11 02:59:22;;;;;;;2.47;1.40;;;;;;;13.82;54.13;100835.25;4976075;28;20360;-61
2023/10/11 03:02:00;;;;;;;2.13;1.40;;;;;;;13.79;54.92;100799.41;4985699;28;20295;-62
2023/10/11 03:04:35;;;;;;;8.60;1.67;;;;;;;14.22;56.01;100835.25;4975691;28;20330;-62
2023/10/11 03:07:09;;;;;;;3.63;1.40;;;;;;;14.13;49.51;100830.25;4986167;28;20292;-62
2023/10/11 03:09:42;;;;;;;2.63;1.43;;;;;;;14.03;53.55;100834.81;4974208;28;20285;-62
2023/10/11 03:12:18;;;;;;;4.90;1.40;;;;;;;14.04;49.79;100819.91;4976082;28;20284;-62
2023/10/11 03:14:54;;;;;;;2.23;1.40;;;;;;;13.24;51.67;100711.28;4985159;28;20382;-61
2023/10/11 03:17:25;;;;;;;2.17;1.40;;;;;;;13.85;48.69;100802.81;4976003;28;20457;-61
2023/10/11 03:19:55;;;;;;;7.07;1.83;;;;;;;13.95;48.85;100814.84;4985240;28;20610;-64
2023/10/11 03:22:28;;;;;;;4.37;1.60;;;;;;;14.20;50.82;100810.81;4976533;28;20288;-61
2023/10/11 03:25:12;;;;;;;2.17;1.42;;;;;;;14.29;50.97;100812.34;4985641;28;20295;-61
2023/10/11 03:27:49;;;;;;;2.97;1.10;;;;;;;14.37;48.68;100817.44;4974464;28;20050;-62
2023/10/11 03:30:23;;;;;;;4.70;1.50;;;;;;;14.61;49.17;100810.75;4975414;28;20648;-61
2023/10/11 03:32:55;;;;;;;2.03;1.37;;;;;;;14.79;50.25;100809.44;4984959;28;20285;-61
2023/10/11 03:35:26;;;;;;;1.50;1.30;;;;;;;14.92;48.40;100805.59;4975464;28;20285;-62
2023/10/11 03:37:59;;;;;;;4.83;1.53;;;;;;;14.72;46.32;100808.72;4985149;28;20277;-61
2023/10/11 03:40:50;;;;;;;3.60;1.10;;;;;;;14.57;48.47;100802.06;4975452;28;20779;-62
2023/10/11 03:43:20;;;;;;;3.50;1.10;;;;;;;14.54;46.77;100804.78;4975773;28;20576;-62
2023/10/11 03:45:51;;;;;;;4.13;1.83;;;;;;;14.56;48.51;100797.72;4981323;28;20636;-61
2023/10/11 03:48:21;;;;;;;11.03;1.83;;;;;;;14.62;46.21;100791.44;4956381;28;20307;-61
2023/10/11 03:50:52;;;;;;;5.57;1.40;;;;;;;14.64;45.13;100787.88;4978864;28;20315;-63
2023/10/11 03:53:24;;;;;;;2.83;1.30;;;;;;;14.51;47.99;100788.19;4975482;28;20296;-61
2023/10/11 03:55:57;;;;;;;6.47;1.40;;;;;;;14.50;47.22;100776.78;4984947;28;20727;-61
2023/10/11 03:58:32;;;;;;;5.20;2.00;;;;;;;14.46;45.42;100785.66;4975259;28;20293;-60
2023/10/11 04:01:11;;;;;;;2.47;1.37;;;;;;;14.46;45.79;100780.41;4984780;28;21107;-63
2023/10/11 04:03:42;;;;;;;4.13;1.27;;;;;;;14.39;47.26;100773.56;4974117;28;20386;-60
2023/10/11 04:06:19;;;;;;;4.13;1.70;;;;;;;14.39;46.31;100776.19;4974755;28;21088;-62
2023/10/11 04:08:55;;;;;;;2.93;1.40;;;;;;;14.25;45.58;100763.38;4984757;28;20292;-60
2023/10/11 04:11:37;;;;;;;2.93;1.23;;;;;;;14.22;46.25;100772.19;4974872;28;20699;-63
2023/10/11 04:14:17;;;;;;;5.90;1.63;;;;;;;14.10;46.71;100772.47;4985107;28;20300;-62
2023/10/11 04:16:47;;;;;;;2.75;1.45;;;;;;;14.14;47.63;100774.13;4968263;28;20285;-62
2023/10/11 04:19:21;;;;;;;2.13;1.27;;;;;;;14.17;47.68;100774.06;4975625;28;20399;-61
2023/10/11 04:21:56;;;;;;;6.13;1.47;;;;;;;14.20;47.11;100768.75;4984733;28;20371;-60
2023/10/11 04:24:26;;;;;;;2.83;1.40;;;;;;;14.17;47.24;100758.28;4974604;28;20340;-62
2023/10/11 04:27:45;;;;;;;2.30;1.20;;;;;;;14.21;47.28;100770.47;4984311;28;20811;-61
2023/10/11 04:29:50;;;;;;;4.97;1.67;;;;;;;14.23;45.50;100763.41;4955281;28;20293;-62
2023/10/11 04:32:40;;;;;;;7.27;1.37;;;;;;;13.66;45.61;100677.16;4955992;28;20395;-63
2023/10/11 04:35:21;;;;;;;10.23;1.30;;;;;;;14.10;45.88;100775.09;4955564;28;20305;-61
2023/10/11 04:38:01;;;;;;;2.00;1.10;;;;;;;13.87;44.48;100769.50;4965387;28;20289;-62
2023/10/11 04:40:42;;;;;;;3.73;1.40;;;;;;;13.74;45.90;100772.38;4955879;28;20281;-62
2023/10/11 04:43:24;;;;;;;9.65;1.90;;;;;;;13.72;46.98;100771.56;4956457;28;20053;-64
2023/10/11 04:45:55;;;;;;;2.92;1.30;;;;;;;13.87;49.83;100773.00;4983790;28;20471;-63
2023/10/11 04:48:36;;;;;;;2.77;1.10;;;;;;;14.02;49.48;100769.16;4974746;28;20062;-62
2023/10/11 04:51:21;;;;;;;3.03;1.27;;;;;;;14.11;49.64;100768.97;4984682;28;21090;-62
2023/10/11 04:53:58;;;;;;;2.07;1.07;;;;;;;14.07;47.53;100767.28;4983814;28;20703;-62
2023/10/11 04:59:25;;;;;;;3.50;1.33;;;;;;;13.91;48.75;100743.13;4955148;28;20081;-62
2023/10/11 05:02:08;;;;;;;3.25;1.40;;;;;;;14.09;49.89;100778.63;4973652;28;20273;-63
2023/10/11 05:04:44;;;;;;;4.30;1.20;;;;;;;13.98;49.55;100778.88;4974169;28;20758;-61
2023/10/11 05:07:19;;;;;;;2.20;1.23;;;;;;;13.92;49.31;100783.41;4974838;28;20292;-63
2023/10/11 05:09:56;;;;;;;5.57;1.20;;;;;;;13.82;48.73;100788.84;4983742;28;20291;-62
2023/10/11 05:12:27;;;;;;;2.67;1.30;;;;;;;13.70;50.65;100781.22;4974299;28;20283;-62
2023/10/11 05:15:03;;;;;;;3.90;1.30;;;;;;;13.65;50.36;100780.44;4983821;28;20300;-62
2023/10/11 05:17:38;;;;;;;2.87;1.27;;;;;;;13.66;50.85;100781.34;4965543;28;20288;-63
2023/10/11 05:20:44;;;;;;;4.47;1.07;;;;;;;13.51;50.16;100777.28;4983643;28;20311;-64
2023/10/11 05:23:14;;;;;;;4.53;1.60;;;;;;;13.52;51.70;100778.97;4977772;28;20339;-63
2023/10/11 05:25:58;;;;;;;3.03;1.20;;;;;;;13.49;49.53;100784.31;4987687;28;20099;-61
2023/10/11 05:28:27;;;;;;;3.72;1.50;;;;;;;13.35;50.78;100792.44;4977822;28;20547;-64
2023/10/11 05:31:19;;;;;;;6.35;1.70;;;;;;;13.30;50.98;100779.41;4987672;28;20144;-63
2023/10/11 05:34:29;;;;;;;2.80;1.40;;;;;;;13.35;51.75;100788.06;4971017;28;20160;-64
2023/10/11 05:51:07;;;;;;;5.07;1.58;;;;;;;13.17;53.04;100783.13;4967742;28;20069;-64
2023/10/11 05:53:40;;;;;;;6.20;1.45;;;;;;;13.00;52.08;100786.06;4963331;28;20439;-62
2023/10/11 05:56:20;;;;;;;6.93;1.83;;;;;;;12.90;53.81;100785.38;4978138;28;20132;-61
2023/10/11 05:58:51;;;;;;;5.68;1.80;;;;;;;12.81;53.59;100772.41;4986980;28;20056;-62
2023/10/11 06:01:23;;;;;;;4.78;2.00;;;;;;;12.80;54.03;100783.78;4977895;28;20140;-61
2023/10/11 06:03:56;;;;;;;4.60;1.50;;;;;;;12.83;54.24;100794.25;4987378;28;20057;-61
2023/10/11 06:06:32;;;;;;;5.03;2.20;;;;;;;12.50;53.67;100735.34;4977280;28;20053;-62
2023/10/11 06:09:05;;;;;;;4.10;2.00;;;;;;;12.84;55.32;100777.59;4986633;28;20061;-62
2023/10/11 06:11:38;;;;;;;7.18;1.98;;;;;;;12.82;55.51;100787.25;4976737;28;20574;-62
2023/10/11 06:14:12;;;;;;;8.27;1.50;;;;;;;12.82;55.47;100787.25;4986760;28;20132;-63
2023/10/11 06:16:43;;;;;;;6.57;1.70;;;;;;;12.79;55.58;100782.06;4961431;28;20065;-62
2023/10/11 06:19:18;;;;;;;6.38;1.65;;;;;;;12.80;56.47;100783.78;4976664;28;20550;-63
2023/10/11 06:21:59;;;;;;;3.90;1.50;;;;;;;12.78;56.07;100780.34;4986459;28;20080;-62
2023/10/11 06:24:33;;;;;;;2.65;1.40;;;;;;;12.64;54.73;100787.56;4976458;28;20065;-64
2023/10/11 06:28:09;;;;;;;5.47;1.67;;;;;;;12.32;55.44;100744.38;4986106;28;20053;-63
2023/10/11 06:30:09;;;;;;;3.75;1.70;;;;;;;12.56;57.01;100785.06;4985737;28;20403;-61
2023/10/11 06:32:41;;;;;;;5.95;1.95;;;;;;;12.49;55.58;100780.81;4975004;28;20060;-63
2023/10/11 06:35:23;;;;;;;7.38;4.00;;;;;;;12.41;55.45;100775.69;4975768;28;20735;-62
2023/10/11 06:37:54;;;;;;;3.92;2.17;;;;;;;12.24;56.04;100762.00;4986011;28;20173;-62
2023/10/11 06:40:38;;;;;;;3.13;1.60;;;;;;;12.09;55.75;100747.38;4957645;28;20053;-63
2023/10/11 06:43:12;;;;;;;6.18;2.00;;;;;;;12.14;54.88;100776.13;4962916;28;20046;-63
2023/10/11 06:45:41;;;;;;;6.45;2.00;;;;;;;12.00;55.84;100764.06;4968821;28;20061;-61
2023/10/11 06:48:13;;;;;;;10.73;3.17;;;;;;;12.00;56.93;100766.69;4976291;28;20081;-63
2023/10/11 06:50:46;;;;;;;5.13;1.90;;;;;;;11.99;57.62;100757.09;4985743;28;20065;-63
2023/10/11 06:53:17;;;;;;;13.13;2.65;;;;;;;11.97;58.56;100758.88;4976267;28;20145;-63
2023/10/11 06:55:50;;;;;;;9.07;1.98;;;;;;;11.90;59.21;100757.22;4986073;28;20069;-62
2023/10/11 06:58:22;;;;;;;5.25;2.38;;;;;;;11.85;60.18;100764.25;4976701;28;20054;-63
2023/10/11 07:00:53;;;;;;;8.07;2.20;;;;;;;11.79;60.98;100754.72;4985825;28;20049;-62
2023/10/11 07:03:26;;;;;;;7.43;2.40;;;;;;;11.72;60.91;100752.22;4976045;28;20057;-62
2023/10/11 07:06:00;;;;;;;5.78;1.90;;;;;;;11.65;61.32;100754.91;4985585;28;20054;-62
2023/10/11 07:08:35;;;;;;;3.35;1.95;;;;;;;11.58;61.83;100750.66;4975745;28;20193;-61
2023/10/11 07:11:16;;;;;;;6.43;2.63;;;;;;;11.06;62.50;100677.16;4985612;28;20061;-62
2023/10/11 07:13:57;;;;;;;8.38;3.58;;;;;;;11.42;62.60;100749.09;4973145;28;20860;-64
2023/10/11 07:16:31;;;;;;;8.85;3.20;;;;;;;11.30;62.91;100744.00;4976608;28;20396;-60
2023/10/11 07:19:01;;;;;;;6.47;3.53;;;;;;;11.18;63.39;100745.91;4986338;28;20108;-62
2023/10/11 07:21:48;;;;;;;9.60;2.75;;;;;;;11.08;63.92;100749.47;4976189;28;20137;-62
2023/10/11 07:24:31;;;;;;;7.05;3.22;;;;;;;11.00;64.78;100746.09;4976286;28;20083;-63
2023/10/11 07:27:09;;;;;;;9.48;3.22;;;;;;;10.80;63.92;100734.06;4985851;28;20144;-62
2023/10/11 07:29:42;;;;;;;4.55;2.80;;;;;;;10.69;63.75;100740.31;4979233;28;20063;-63
2023/10/11 07:32:18;;;;;;;6.57;2.50;;;;;;;10.65;64.67;100744.66;4986101;28;20115;-64
2023/10/11 07:34:54;;;;;;;13.40;3.40;;;;;;;10.64;65.47;100758.63;4987574;28;20371;-64
2023/10/11 07:37:27;;;;;;;9.20;3.22;;;;;;;10.54;66.38;100762.22;4957208;28;20050;-63
2023/10/11 07:40:07;;;;;;;9.70;3.35;;;;;;;10.42;66.93;100767.53;4984661;28;20081;-62
2023/10/11 07:42:38;;;;;;;;;;;;;;;10.39;68.67;100773.66;4974875;28;20046;-65
2023/10/11 07:45:12;;;;;;;6.30;2.67;;;;;;;10.31;69.02;100771.09;4984793;28;19932;-65
2023/10/11 07:47:45;;;;;;;13.23;2.88;;;;;;;10.20;69.45;100772.88;4983550;28;20065;-64
2023/10/11 07:50:22;;;;;;;10.75;3.65;;;;;;;10.20;71.12;100783.31;4972237;28;20082;-65
2023/10/11 07:52:55;;;;;;;9.18;2.85;;;;;;;10.06;72.07;100790.34;4965819;28;20068;-63
2023/10/11 07:55:26;;;;;;;7.43;3.28;;;;;;;9.93;72.43;100795.66;4956976;28;20088;-63
2023/10/11 07:58:01;;;;;;;20.30;3.67;;;;;;;9.90;73.22;100794.81;4984676;28;20132;-63
2023/10/11 08:00:31;;;;;;;10.20;3.50;;;;;;;9.80;72.99;100793.97;4966267;28;20671;-62
2023/10/11 08:03:04;;;;;;;7.93;2.90;;;;;;;9.73;73.98;100787.03;4977749;28;20777;-66
2023/10/11 08:05:41;;;;;;;6.07;3.00;;;;;;;9.62;74.19;100796.69;4971655;28;20073;-64
2023/10/11 08:08:20;;;;;;;8.65;3.30;;;;;;;9.40;74.68;100799.34;4942863;28;20481;-64
2023/10/11 08:10:52;;;;;;;10.30;2.97;;;;;;;9.18;75.02;100797.66;4964467;28;20046;-62
2023/10/11 08:13:25;;;;;;;7.65;2.45;;;;;;;8.95;75.49;100801.19;4965793;28;20073;-64
2023/10/11 08:15:57;;;;;;;8.82;2.95;;;;;;;8.70;76.46;100799.47;4984320;28;20046;-63
2023/10/11 08:18:29;;;;;;;10.20;2.67;;;;;;;8.47;77.85;100796.88;4963759;28;20065;-65
2023/10/11 08:21:02;;;;;;;14.60;2.95;;;;;;;8.31;79.11;100790.72;4946342;28;20069;-66
2023/10/11 08:23:34;;;;;;;20.58;3.72;;;;;;;8.13;80.18;100794.16;4936875;28;20507;-64
2023/10/11 08:26:07;;;;;;;16.98;4.45;;;;;;;7.99;81.19;100804.56;4946199;28;20133;-65
2023/10/11 08:28:46;;;;;;;15.27;4.45;;;;;;;7.94;82.30;100790.66;4948241;28;20546;-66
2023/10/11 08:31:35;;;;;;;18.13;7.93;;;;;;;6.94;82.70;100643.78;4955957;28;20050;-63
2023/10/11 08:34:06;;;;;;;25.83;7.10;;;;;;;7.73;83.58;100797.50;4965211;28;20141;-64
2023/10/11 08:36:36;;;;;;;16.95;6.25;;;;;;;7.65;84.29;100796.63;4955206;28;20050;-64
2023/10/11 08:39:13;;;;;;;16.25;6.18;;;;;;;7.49;85.07;100802.63;4965616;28;20156;-63
2023/10/11 08:41:45;;;;;;;6.95;4.93;;;;;;;7.30;85.22;100796.44;4964688;28;20053;-65
2023/10/11 08:44:20;;;;;;;10.10;4.65;;;;;;;7.18;86.49;100802.44;4967891;28;20140;-64
2023/10/11 08:46:53;;;;;;;7.70;4.05;;;;;;;7.05;87.11;100790.25;4979821;28;20157;-64
2023/10/11 08:49:24;;;;;;;6.55;3.60;;;;;;;6.98;87.66;100810.09;4964908;28;20722;-64
2023/10/11 08:52:00;;;;;;;4.97;2.50;;;;;;;6.87;87.79;100791.84;4982666;28;20132;-65
2023/10/11 08:54:33;;;;;;;6.13;2.67;;;;;;;6.82;88.58;100798.75;4974418;28;20454;-66
2023/10/11 08:57:03;;;;;;;10.63;4.60;;;;;;;6.76;88.63;100793.47;4983352;28;20054;-65
2023/10/11 08:59:44;;;;;;;8.10;3.70;;;;;;;6.76;89.05;100793.47;4977777;28;20124;-65
2023/10/11 09:02:17;;;;;;;8.73;3.75;;;;;;;6.77;89.50;100794.38;4969581;28;20566;-65
2023/10/11 09:05:06;;;;;;;6.32;3.58;;;;;;;6.80;89.78;100795.25;4974825;28;20053;-65
2023/10/11 09:07:45;;;;;;;11.93;3.20;;;;;;;6.82;89.77;100809.13;4976771;28;20058;-63
2023/10/11 09:10:33;;;;;;;6.93;3.03;;;;;;;6.77;89.58;100784.00;4966690;28;20054;-63
2023/10/11 09:13:10;;;;;;;8.18;3.05;;;;;;;6.78;89.79;100802.16;4986771;28;20141;-64
2023/10/11 09:15:42;;;;;;;9.07;2.80;;;;;;;6.73;90.30;100793.47;4980570;28;20496;-63
2023/10/11 09:18:14;;;;;;;13.02;3.25;;;;;;;6.70;90.82;100789.13;4979497;28;20053;-65
2023/10/11 09:20:55;;;;;;;8.77;2.90;;;;;;;6.68;91.21;100792.56;4985122;28;20054;-64
2023/10/11 09:23:39;;;;;;;8.40;3.15;;;;;;;6.60;91.50;100781.25;4981338;28;20042;-65
2023/10/11 09:26:13;;;;;;;11.23;3.58;;;;;;;6.57;91.78;100789.03;4976966;28;20050;-63
2023/10/11 09:28:56;;;;;;;6.82;3.72;;;;;;;6.45;91.95;100782.00;4985122;28;20053;-63
2023/10/11 09:31:27;;;;;;;11.10;3.92;;;;;;;6.46;92.26;100788.91;4974958;28;20061;-65
2023/10/11 09:33:59;;;;;;;12.85;4.22;;;;;;;6.38;92.75;100786.25;4977473;28;20070;-63
2023/10/11 09:36:31;;;;;;;8.57;4.75;;;;;;;6.36;93.29;100798.34;4968606;28;20375;-65
2023/10/11 09:39:03;;;;;;;9.55;3.60;;;;;;;6.35;93.81;100795.75;4987784;28;20481;-65
2023/10/11 09:41:40;;;;;;;6.90;3.30;;;;;;;6.32;93.95;100799.19;4976783;28;20555;-64
2023/10/11 09:44:12;;;;;;;8.65;3.58;;;;;;;6.33;94.17;100797.44;4979715;28;20860;-63
2023/10/11 09:46:45;;;;;;;8.27;3.85;;;;;;;6.26;94.54;100791.31;4981995;28;20077;-64
2023/10/11 09:49:21;;;;;;;7.30;2.92;;;;;;;6.25;94.56;100799.97;4973811;28;20058;-65
2023/10/11 09:51:51;;;;;;;6.20;3.53;;;;;;;6.09;94.96;100798.97;4989696;28;20057;-65
2023/10/11 09:54:27;;;;;;;9.02;3.90;;;;;;;6.01;95.30;100798.84;4970250;28;20054;-65
2023/10/11 09:57:06;;;;;;;8.32;4.80;;;;;;;5.92;95.99;100800.47;4982390;28;20050;-63
2023/10/11 09:59:46;;;;;;;7.88;4.07;;;;;;;5.85;96.46;100794.31;4981638;28;20056;-66
2023/10/11 10:02:21;;;;;;;;;;;;;;;5.77;97.12;100796.84;4976623;28;20415;-64
2023/10/11 10:05:04;;;;;;;11.77;6.47;;;;;;;5.83;97.78;100793.44;4985112;28;20932;-65
2023/10/11 10:07:44;;;;;;;15.40;7.47;;;;;;;5.83;98.32;100790.84;4961688;28;20064;-65
2023/10/11 10:10:16;;;;;;;17.70;9.98;;;;;;;5.54;98.15;100747.31;4982350;28;20360;-65
2023/10/11 10:13:04;;;;;;;16.73;10.35;;;;;;;5.88;98.62;100789.16;4991591;28;20053;-63
2023/10/11 10:15:49;;;;;;;16.63;10.45;;;;;;;5.90;98.10;100786.59;4981455;28;20472;-63
2023/10/11 10:18:22;;;;;;;17.50;10.68;;;;;;;5.75;97.66;100776.94;4981427;28;20606;-65
2023/10/11 10:21:04;;;;;;;11.35;5.22;;;;;;;5.72;97.97;100782.09;4991055;28;20480;-63
2023/10/11 10:23:37;;;;;;;12.63;6.65;;;;;;;5.68;98.50;100790.66;4966640;28;20070;-64
2023/10/11 10:26:38;;;;;;;14.13;6.55;;;;;;;5.52;98.44;100790.50;4974654;28;20077;-65
2023/10/11 10:29:14;;;;;;;15.40;7.10;;;;;;;5.45;99.05;100793.84;4975819;28;20049;-63
2023/10/11 10:32:08;;;;;;;12.00;8.05;;;;;;;5.43;99.67;100795.53;4975014;28;20742;-65
2023/10/11 10:34:41;;;;;;;16.17;8.40;;;;;;;5.36;99.89;100798.91;4970266;28;20081;-64
2023/10/11 10:37:44;;;;;;;18.13;8.60;;;;;;;5.36;100.00;100801.50;4981299;28;20058;-64
2023/10/11 10:40:24;;;;;;;11.63;6.57;;;;;;;5.38;99.95;100802.38;4976920;28;20057;-65
2023/10/11 10:43:21;;;;;;;11.60;6.30;;;;;;;5.42;99.58;100799.00;4990597;28;20050;-64
2023/10/11 10:45:59;;;;;;;12.88;6.35;;;;;;;5.45;99.02;100804.22;4974700;28;20053;-65
2023/10/11 10:48:39;;;;;;;13.93;6.05;;;;;;;5.45;99.06;100793.84;4968180;28;20062;-64
2023/10/11 10:51:11;;;;;;;13.15;5.97;;;;;;;5.45;98.96;100793.84;4974947;28;20058;-63
2023/10/11 10:53:42;;;;;;;14.82;6.57;;;;;;;5.34;98.54;100795.41;4983669;28;20132;-63
2023/10/11 10:56:22;;;;;;;12.27;5.72;;;;;;;5.31;98.81;100795.38;4980703;28;20176;-64
2023/10/11 10:59:04;;;;;;;24.98;5.65;;;;;;;5.24;98.46;100798.72;4986605;28;20053;-64
2023/10/11 11:01:36;;;;;;;10.07;3.80;;;;;;;5.13;98.99;100802.03;4970738;28;20087;-64
2023/10/11 11:04:07;;;;;;;8.23;3.63;;;;;;;5.04;99.83;100785.50;4989775;28;20057;-64
2023/10/11 11:06:41;;;;;;;10.30;4.38;;;;;;;5.24;100.00;100803.91;4981570;28;20249;-64
2023/10/11 11:09:13;;;;;;;18.40;4.38;;;;;;;5.23;100.00;100797.88;4980693;28;20053;-64
2023/10/11 11:11:44;;;;;;;8.80;4.05;;;;;;;5.18;100.00;100797.78;4990415;28;20384;-64
2023/10/11 11:14:14;;;;;;;9.93;3.25;;;;;;;5.25;100.00;100805.66;4969837;28;20049;-64
2023/10/11 11:16:57;;;;;;;6.80;3.63;;;;;;;5.31;100.00;100805.75;4976494;28;20041;-64
2023/10/11 11:19:27;;;;;;;10.07;3.95;;;;;;;5.23;100.00;100797.00;4978776;28;20050;-64
2023/10/11 11:22:11;;;;;;;8.38;3.95;;;;;;;5.25;100.00;100800.50;4976371;28;20058;-64
2023/10/11 11:24:42;;;;;;;15.10;6.57;;;;;;;5.17;100.00;100803.84;4967597;28;20152;-64
2023/10/11 11:27:18;;;;;;;7.30;4.65;;;;;;;5.08;100.00;100803.69;4966464;28;20058;-65
2023/10/11 11:29:48;;;;;;;13.25;4.47;;;;;;;5.01;100.00;100801.84;4977113;28;20049;-65
2023/10/11 11:32:36;;;;;;;6.93;3.80;;;;;;;4.96;100.00;100806.09;4970047;28;20057;-64
2023/10/11 11:35:10;;;;;;;7.53;2.72;;;;;;;4.89;100.00;100801.66;4983869;28;20080;-65
2023/10/11 11:38:02;;;;;;;9.02;4.00;;;;;;;4.76;100.00;100790.25;4970152;28;20060;-64
2023/10/11 11:40:36;;;;;;;7.43;3.07;;;;;;;4.83;100.00;100801.59;4977128;28;20061;-65
2023/10/11 11:43:06;;;;;;;7.05;2.83;;;;;;;4.78;100.00;100798.06;4990933;28;20096;-64
2023/10/11 11:45:36;;;;;;;6.50;2.92;;;;;;;4.81;100.00;100798.97;4969527;28;20057;-64
2023/10/11 11:48:09;;;;;;;9.40;3.10;;;;;;;4.86;100.00;100796.44;4978948;28;20041;-64
2023/10/11 11:50:45;;;;;;;6.88;3.25;;;;;;;4.82;100.00;100794.66;4984100;28;20192;-63
2023/10/11 11:53:18;;;;;;;7.18;2.58;;;;;;;4.75;100.00;100788.53;4974585;28;20484;-66
2023/10/11 11:55:49;;;;;;;8.23;2.60;;;;;;;4.74;100.00;100782.47;4984683;28;20045;-64
2023/10/11 11:58:18;;;;;;;9.23;3.58;;;;;;;4.70;100.00;100785.84;4975619;28;20419;-63
2023/10/11 12:01:08;;;;;;;7.72;4.63;;;;;;;4.69;100.00;100784.13;4984894;28;20049;-63
2023/10/11 12:03:40;;;;;;;8.15;4.70;;;;;;;4.70;100.00;100785.84;4974649;28;20054;-62
2023/10/11 12:06:21;;;;;;;9.63;4.18;;;;;;;4.71;100.00;100787.59;4975276;28;20740;-65
2023/10/11 12:09:20;;;;;;;6.82;3.30;;;;;;;4.65;100.00;100792.69;4985483;28;20110;-63
2023/10/11 12:11:50;;;;;;;5.70;3.03;;;;;;;4.58;100.00;100784.78;4955747;28;20046;-64
2023/10/11 12:14:22;;;;;;;7.47;3.42;;;;;;;4.60;100.00;100778.81;4955932;28;20481;-62
2023/10/11 12:16:55;;;;;;;13.40;4.07;;;;;;;4.61;100.00;100779.66;4971094;28;20141;-62
2023/10/11 12:19:32;;;;;;;7.78;3.17;;;;;;;4.66;100.00;100773.69;4975152;28;20057;-61
2023/10/11 12:22:04;;;;;;;5.53;3.03;;;;;;;4.66;100.00;100768.53;4983836;28;20057;-64